Terminal Aerodrome Forecast
Issued by NWS Twin Cities, MN

Home | Current Version | Previous Version | Graphics & Text | Print | Product List | Glossary On
Versions: 1 2 3 4 5 6 7 8 9 10 11 12 13 14 15 16 17 18 19 20 21 22 23 24 25 26 27 28 29
000
FTUS43 KMPX 231737
TAFMSP
TAF
KMSP 231737Z 2318/2424 25010KT P6SM SCT070
     FM231900 26008KT P6SM SKC
     FM240000 29008KT P6SM OVC025
     FM240200 30007KT P6SM OVC015
     FM240800 29006KT 4SM BR OVC010
     FM241700 28005KT P6SM OVC020=

USA.gov is the U.S. government's official web portal to all federal, state and local government web resources and services.